Terminal Aerodrome Forecast
Issued by NWS Spokane, WA

Home | Current Version | Previous Version | Text Only | Print | Product List | Glossary On
Versions: 1 2 3 4 5 6 7 8 9 10 11 12 13 14
000
FTUS46 KOTX 161739
TAFGEG
TAF
KGEG 161739Z 1618/1718 21012KT P6SM -RA SCT020 BKN025 OVC040
     FM161900 21012KT P6SM -SHRA BKN040 OVC050
     FM170100 19008KT P6SM BKN045 OVC060
     FM170700 17007KT P6SM SCT050 OVC090
     FM171400 17007KT P6SM -RA SCT030 BKN040 OVC050=

USA.gov is the U.S. government's official web portal to all federal, state and local government web resources and services.